北海道METAR電文


稚内(RJCW)
05/23 18:00
METAR RJCW 230900Z 17010KT 8000 FEW003 SCT006 BKN008 13/11 Q1004 RMK
1ST003 4ST006 5ST008 A2965=

利尻(RJER)
05/23 16:00
RJER 230700Z 22015KT 9999 FEW020 BKNXXX 15/11 Q1003 RMK A2964=

紋別(RJEB)
05/23 16:00
METAR RJEB 230700Z 31005KT 9999 FEW040 SCT080 BKN130 14/10 Q1005 RMK
1CU040 3AC080 6AC130 A2968=

女満別(RJCM)
05/23 20:00
METAR RJCM 231100Z 03004KT 9999 FEW060 SCT080 BKN090 13/09 Q1006 RMK
1CU060 3AC080 6AC090 A2972=

中標津(RJCN)
05/23 18:00
METAR RJCN 230900Z 04009KT 9999 FEW050 SCT170 BKN/// 13/08 Q1005 RMK
1CU050 4AC170 A2970=

釧路(RJCK)
05/24 04:00
METAR RJCK 231900Z AUTO 36006KT 9999 NSC 10/08 Q1003 RMK A2964=

十勝(RJCT)
05/24 04:00
METAR RJCT 231900Z NIL=

帯広(RJCB)
05/23 20:00
METAR RJCB 231100Z 22007KT 160V270 9999 FEW060 SCT140 BKN/// 22/M03
Q1005 RMK 1CU060 4AC140 A2968=

旭川M(RJCA)
05/24 04:00
METAR RJCA 231900Z NIL=

旭川C(RJEC)
05/24 04:00
METAR RJEC 231900Z AUTO 30004KT 9999 -RA FEW014 SCT015 BKN019 13/12
Q1004 RMK A2967=

丘珠(RJCO)
05/24 04:00
METAR RJCO 231900Z NIL=

新千歳(RJCC)
05/24 04:00
METAR RJCC 231900Z 34009KT 7000 -SHRA FEW001 SCT003 BKN030 14/13
Q1004 RMK 1ST001 3ST003 7CU030 A2967=

千歳(RJCJ)
05/24 04:00
METAR RJCJ 231900Z 34008KT 5000 -SHRA BR FEW003 SCT004 BKN005 14/13
Q1005 RMK 1ST003 3ST004 5ST005 A2969=

奥尻(RJEO)
05/23 14:00
RJEO 230500Z 18008KT 9000 FEW020 SCTXXX 16/14 Q1007 RMK A2974=

函館(RJCH)
05/24 04:00
METAR RJCH 231900Z AUTO VRB01KT 9999 BKN016 OVC190 15/13 Q1004 RMK
A2966=
Copyright(c) 2014 International Meteorological & Oceanographic Consultants Co,.Ltd. All Rights Reserved. Design by http://f-tpl.com